Terminal Aerodrome Forecast
Issued by NWS

Home | Current Version | Previous Version | Text Only | Print | Product List | Glossary On
Versions: 1 2 3 4 5 6 7 8 9 10 11 12 13 14 15
000
FTUS43 KEAX 281000 AAA
TAFSTJ
TAF AMD
KSTJ 281034Z 2811/2906 13006KT P6SM VCTS BKN050CB
      TEMPO 2812/2816 18007KT 6SM -TSRA BR BKN030CB
     FM281800 15010KT P6SM SCT035 BKN180
     FM282100 17012KT P6SM VCTS BKN035CB
      TEMPO 2823/2903 19008KT 6SM -TSRA BR BKN030CB=

USA.gov is the U.S. government's official web portal to all federal, state and local government web resources and services.